メインページ
METAR-TAF:

METAR-TAF

空港 :

North Battleford, サスカチュワン州, カナダ

緯度: 52-46N, 経度: 108-15W, 海抜: 548m

現時点の気象観測

当レポートは37分前の09:00(UTC)に作成
北西の風 7kt
気温 -4°C
湿度 93%
気圧 1016 hPa
視程: 9.7km
高度1500ftの曇り

METAR: CYQW 140900Z AUTO 32007KT 6SM BR OVC015 M04/M05 A3000 RMK SLP194

時間: 03:37 (09:37 UTC)

予報

当レポートは1時間3分前の08:34(UTC)に作成
予報は14日の 08時(UTC)から 14日の 18時(UTC)まで有効
北/北西の風 8kt
視程: 9.7km
高度500ftの雲は散在している
高度1200ftの曇り
14日の 08時(UTC)から 14日の 14時(UTC)まで一時的に
視程: 1.6km
高度500ftの千切れ雲あり
高度1200ftの曇り
確率 30%
14日の 09時(UTC)から 14日の 12時(UTC)まで
視程: 1.6km
高度400ftの曇り
(弱い) 着氷性, 霧雨, 靄
14日の 1600時(UTC)から
北/北西の風 8kt
視程: 10km
高度1500ftの千切れ雲あり
14日の 16時(UTC)から 14日の 18時(UTC)まで一時的に
高度1500ftの雲は散在している
高度2500ftの千切れ雲あり
14日の 16時(UTC)から 14日の 18時(UTC)まで徐々に
北東の風 6kt

TAF: CYQW 140834Z 1408/1418 33008KT 6SM BR SCT005 OVC012 TEMPO 1408/1414 1SM BR BKN005 OVC012 PROB30 1409/1412 1SM -FZDZ BR OVC004 FM141600 34008KT P6SM BKN015 TEMPO 1416/1418 SCT015 BKN025 BECMG 1416/1418 04006KT RMK FCST BASED ON AUTO OBS. NXT FCST BY 141200Z

4,000以上の空港の気象観測と天気予報(METAR報とTAF報)

利用可能な観測所は地図上に黄色い丸と赤い丸で示す。

丸の上にカーソルを重ねると観測所名を参照できる。

次にクリックすると気象観測と天気予報を参照できる。

マップの切り替え:黒色「×」印の緑ボタンをクリックして拡大、「-」印の緑ボタンをクリックして縮小、緑色の三角印をクリックして隣りの地図に切り替え


METAR-TAF: